Cotton, Georgia
Current Conditions -  °F | °C
As of 1:15 PM on Thursday 18 Dec 2014 (Local Time) from KMGR Reporting Station
Clear Clear  
Wind Chill: 57°   Ceiling: Unl
Heat Index: 57°   Visibility: 10mi
Dew Point: 43°   Wind: 5mph
Humidity: 59%   Direction: 220°SW
Pressure: 30.14"   Gusts: NA
Location:  31.16°N, 84.07°W
Report Text: KMGR 181815Z AUTO 22004KT 10SM CLR 14/06 A3014 RMK AO2
Loading
Personal Weather Stations






























Interactive Weather Map New forecast layout! Learn more

10-Day Weather Forecast

Advertisements
Track Severe Weather on mobile